Time;durP1;ratioP1;P1;durP2;ratioP2;P2;SDS_P1;SDS_P2;PMS_P1;PMS_P2;Temp;Humidity;BMP_temperature;BMP_pressure;BME280_temperature;BME280_humidity;BME280_pressure;Samples;Min_cycle;Max_cycle;Signal;HPM_P1;HPM_P2
2022/03/20 00:00:21;;;;;;;25.63;19.73;;;;;;;2.99;100.00;97401.72;4989412;28;101962;-63
2022/03/20 00:02:50;;;;;;;27.73;20.10;;;;;;;3.07;100.00;97402.47;4989026;28;103677;-63
2022/03/20 00:05:19;;;;;;;24.77;19.87;;;;;;;3.05;100.00;97398.38;4992515;28;102045;-63
2022/03/20 00:07:46;;;;;;;25.53;19.43;;;;;;;3.06;100.00;97397.41;4992615;28;105254;-63
2022/03/20 00:10:14;;;;;;;25.20;20.00;;;;;;;3.03;100.00;97408.28;4992242;28;105854;-63
2022/03/20 00:12:43;;;;;;;27.97;19.93;;;;;;;3.07;100.00;97405.09;5028172;27;101835;-63
2022/03/20 00:15:10;;;;;;;28.93;20.73;;;;;;;3.06;100.00;97402.66;5050733;27;104473;-63
2022/03/20 00:17:38;;;;;;;26.27;19.77;;;;;;;3.06;100.00;97389.53;5050095;27;105402;-63
2022/03/20 00:20:07;;;;;;;26.03;19.60;;;;;;;2.96;100.00;97397.66;5050195;27;101912;-63
2022/03/20 00:22:36;;;;;;;26.57;20.37;;;;;;;2.88;100.00;97389.03;5050726;27;105298;-63
2022/03/20 00:25:05;;;;;;;26.43;20.60;;;;;;;2.90;100.00;97394.94;5053460;27;104019;-63
2022/03/20 00:27:33;;;;;;;24.90;19.47;;;;;;;2.72;100.00;97392.63;5050562;27;103545;-63
2022/03/20 00:30:02;;;;;;;27.73;19.80;;;;;;;2.66;100.00;97390.72;5049698;27;105113;-63
2022/03/20 00:32:29;;;;;;;24.33;20.07;;;;;;;2.61;100.00;97392.22;5050270;27;101965;-63
2022/03/20 00:34:59;;;;;;;24.93;19.33;;;;;;;2.40;100.00;97394.69;5050266;27;103786;-63
2022/03/20 00:37:26;;;;;;;28.10;20.80;;;;;;;2.34;100.00;97387.50;5050959;27;103775;-63
2022/03/20 00:39:55;;;;;;;25.77;19.83;;;;;;;2.28;100.00;97386.41;5050276;27;101881;-63
2022/03/20 00:42:22;;;;;;;25.43;19.53;;;;;;;2.21;100.00;97387.28;5050238;27;105163;-63
2022/03/20 00:44:49;;;;;;;26.73;19.47;;;;;;;2.33;100.00;97388.50;5049826;27;105352;-63
2022/03/20 00:47:16;;;;;;;24.43;19.47;;;;;;;2.42;100.00;97397.97;5053429;27;101854;-63
2022/03/20 00:49:43;;;;;;;24.97;19.37;;;;;;;2.45;100.00;97393.16;5049690;27;105767;-63
2022/03/20 00:52:10;;;;;;;25.53;20.13;;;;;;;2.40;100.00;97395.50;5051552;27;101947;-63
2022/03/20 00:54:37;;;;;;;28.77;20.70;;;;;;;2.26;100.00;97392.81;5049647;27;106887;-63
2022/03/20 00:57:06;;;;;;;25.80;20.17;;;;;;;2.30;100.00;97397.53;5050855;27;102531;-63
2022/03/20 00:59:33;;;;;;;25.27;20.23;;;;;;;2.23;100.00;97401.03;5051375;27;102288;-63
2022/03/20 01:02:00;;;;;;;27.07;20.30;;;;;;;2.07;100.00;97401.16;5049597;27;105143;-63
2022/03/20 01:04:27;;;;;;;28.07;21.37;;;;;;;1.97;100.00;97396.09;5049302;27;104078;-63
2022/03/20 01:06:58;;;;;;;25.93;20.30;;;;;;;1.76;100.00;97395.09;5049971;27;101881;-63
2022/03/20 01:09:25;;;;;;;28.80;20.87;;;;;;;1.81;100.00;97393.56;5052568;27;105371;-63
2022/03/20 01:11:53;;;;;;;25.77;19.27;;;;;;;1.78;100.00;97393.09;5051202;27;101788;-63
2022/03/20 01:14:28;;;;;;;30.17;21.23;;;;;;;1.70;100.00;97393.16;5049717;27;104141;-63
2022/03/20 01:16:56;;;;;;;28.13;21.10;;;;;;;1.67;100.00;97394.31;5048276;27;105050;-63
2022/03/20 01:19:24;;;;;;;27.13;21.00;;;;;;;1.65;100.00;97401.50;5049533;27;101970;-63
2022/03/20 01:21:53;;;;;;;28.50;21.20;;;;;;;1.77;100.00;97401.94;5051131;27;102808;-63
2022/03/20 01:24:21;;;;;;;27.43;20.73;;;;;;;1.58;100.00;97394.50;5048946;27;106072;-63
2022/03/20 01:26:48;;;;;;;27.83;21.00;;;;;;;1.55;100.00;97398.28;5051072;27;101775;-63
2022/03/20 01:29:14;;;;;;;27.53;21.10;;;;;;;1.27;100.00;97409.34;5049488;27;105142;-63
2022/03/20 01:31:43;;;;;;;31.03;22.97;;;;;;;1.36;100.00;97403.09;5052220;27;105663;-63
2022/03/20 01:34:10;;;;;;;29.80;21.70;;;;;;;1.27;100.00;97407.53;5049441;27;106581;-63
2022/03/20 01:36:37;;;;;;;28.13;21.60;;;;;;;1.20;100.00;97406.56;5048535;27;105728;-63
2022/03/20 01:39:04;;;;;;;29.60;21.27;;;;;;;1.22;100.00;97406.41;5049357;27;101898;-63
2022/03/20 01:41:32;;;;;;;29.87;21.73;;;;;;;1.28;100.00;97400.50;5049480;27;103711;-63
2022/03/20 01:44:02;;;;;;;25.63;20.53;;;;;;;1.02;100.00;97405.97;5048856;27;105158;-63
2022/03/20 01:46:31;;;;;;;29.87;21.33;;;;;;;1.17;100.00;97403.47;5049227;27;101940;-63
2022/03/20 01:49:00;;;;;;;27.70;21.03;;;;;;;1.02;100.00;97410.38;5049059;27;104816;-63
2022/03/20 01:54:10;;;;;;;26.17;20.17;;;;;;;1.02;100.00;97407.75;5053213;27;101849;-63
2022/03/20 01:56:38;;;;;;;28.77;21.10;;;;;;;0.96;100.00;97401.41;5048568;27;105762;-63
2022/03/20 01:59:05;;;;;;;28.53;20.47;;;;;;;1.04;100.00;97400.56;5049109;27;101932;-63
2022/03/20 02:01:31;;;;;;;31.07;20.53;;;;;;;0.95;100.00;97406.78;5049791;27;102417;-63
2022/03/20 02:04:00;;;;;;;28.90;21.47;;;;;;;0.99;100.00;97405.50;5048541;27;104986;-63
2022/03/20 02:06:27;;;;;;;28.57;20.47;;;;;;;0.92;100.00;97412.34;5049024;27;102256;-63
2022/03/20 02:08:55;;;;;;;27.77;20.37;;;;;;;0.85;100.00;97414.00;5049011;27;105290;-63
2022/03/20 02:11:25;;;;;;;28.67;20.67;;;;;;;0.90;100.00;97403.84;5048293;27;105370;-63
2022/03/20 02:13:54;;;;;;;28.70;20.87;;;;;;;0.93;100.00;97403.53;5051954;27;101839;-63
2022/03/20 02:16:21;;;;;;;26.53;20.10;;;;;;;0.79;100.00;97406.81;5048220;27;105356;-63
2022/03/20 02:18:49;;;;;;;25.90;19.57;;;;;;;0.80;100.00;97400.59;5048787;27;101826;-63
2022/03/20 02:21:17;;;;;;;31.10;21.50;;;;;;;0.83;100.00;97400.28;5048640;27;105213;-63
2022/03/20 02:23:44;;;;;;;25.00;19.50;;;;;;;0.42;100.00;97398.63;5048311;27;105656;-63
2022/03/20 02:26:12;;;;;;;26.67;20.03;;;;;;;0.60;100.00;97399.31;5048429;27;101914;-63
2022/03/20 02:28:39;;;;;;;27.83;20.50;;;;;;;0.51;100.00;97387.19;5050077;27;101873;-63
2022/03/20 02:31:06;;;;;;;28.40;20.33;;;;;;;0.18;100.00;97404.66;5047966;27;105638;-63
2022/03/20 02:33:33;;;;;;;27.57;20.77;;;;;;;0.19;100.00;97400.25;5048429;27;101869;-63
2022/03/20 02:36:01;;;;;;;31.07;20.83;;;;;;;0.20;100.00;97399.28;5051327;27;105127;-63
2022/03/20 02:38:29;;;;;;;25.83;19.63;;;;;;;0.23;100.00;97399.75;5048361;27;101881;-63
2022/03/20 02:40:57;;;;;;;28.20;20.10;;;;;;;0.25;100.00;97397.00;5048314;27;104855;-63
2022/03/20 02:43:28;;;;;;;28.00;21.50;;;;;;;0.29;100.00;97400.94;5048022;27;104116;-63
2022/03/20 02:45:55;;;;;;;27.00;20.57;;;;;;;0.29;100.00;97403.53;5048304;27;102119;-63
2022/03/20 02:48:22;;;;;;;28.93;20.33;;;;;;;0.13;100.00;97401.69;5048174;27;105320;-63
2022/03/20 02:50:49;;;;;;;27.57;20.27;;;;;;;0.14;100.00;97402.53;5047793;27;105663;-63
2022/03/20 02:53:16;;;;;;;24.37;18.70;;;;;;;0.27;100.00;97402.88;5048236;27;102345;-63
2022/03/20 02:55:45;;;;;;;27.10;20.03;;;;;;;0.28;100.00;97397.47;5047926;27;105361;-63
2022/03/20 02:58:14;;;;;;;26.17;19.27;;;;;;;0.23;100.00;97398.97;5050688;27;105017;-63
2022/03/20 03:00:43;;;;;;;23.77;18.23;;;;;;;0.16;100.00;97404.00;5048100;27;105473;-63
2022/03/20 03:03:11;;;;;;;24.37;18.60;;;;;;;0.17;100.00;97407.47;5047217;27;105820;-63
2022/03/20 03:05:40;;;;;;;24.07;18.20;;;;;;;0.16;100.00;97405.78;5048142;27;101912;-63
2022/03/20 03:10:59;;;;;;;24.57;17.47;;;;;;;0.19;100.00;97414.16;5047344;27;105777;-63
2022/03/20 03:13:37;;;;;;;24.80;18.17;;;;;;;0.23;100.00;97419.88;5049205;27;101870;-63
2022/03/20 03:16:08;;;;;;;23.40;17.00;;;;;;;0.05;100.00;97417.41;5049342;27;102299;-63
2022/03/20 03:18:35;;;;;;;24.07;17.40;;;;;;;0.22;100.00;97421.66;5047238;27;105320;-63
2022/03/20 03:21:03;;;;;;;23.00;17.90;;;;;;;0.12;100.00;97423.59;5051431;27;101837;-63
2022/03/20 03:23:31;;;;;;;20.50;16.10;;;;;;;0.07;100.00;97420.66;5048963;27;102533;-63
2022/03/20 03:25:59;;;;;;;23.27;17.17;;;;;;;0.14;100.00;97433.91;5047707;27;102344;-63
2022/03/20 03:28:34;;;;;;;23.47;17.57;;;;;;;0.00;100.00;97434.56;5047808;27;105527;-63
2022/03/20 03:31:02;;;;;;;24.23;17.47;;;;;;;0.11;100.00;97437.66;5047267;27;105197;-63
2022/03/20 03:33:30;;;;;;;24.00;17.10;;;;;;;-0.01;100.00;97432.91;5047603;27;102122;-63
2022/03/20 03:35:57;;;;;;;23.83;17.47;;;;;;;-0.21;100.00;97439.38;5047795;27;105157;-63
2022/03/20 03:38:26;;;;;;;22.90;16.57;;;;;;;-0.13;100.00;97436.00;5046966;27;105539;-63
2022/03/20 03:40:54;;;;;;;22.17;16.63;;;;;;;-0.06;100.00;97437.78;5049265;27;101989;-63
2022/03/20 03:43:24;;;;;;;24.70;17.43;;;;;;;-0.01;100.00;97433.72;5054138;27;103959;-63
2022/03/20 03:45:52;;;;;;;23.00;17.27;;;;;;;0.11;100.00;97427.22;5051268;27;102280;-63
2022/03/20 03:48:19;;;;;;;25.17;17.93;;;;;;;-0.03;100.00;97438.31;5051193;27;105184;-63
2022/03/20 03:50:50;;;;;;;24.83;17.90;;;;;;;-0.17;100.00;97433.69;5052049;27;102636;-63
2022/03/20 03:53:16;;;;;;;22.90;17.67;;;;;;;-0.10;100.00;97441.72;5051020;27;101862;-63
2022/03/20 03:55:44;;;;;;;25.77;17.53;;;;;;;-0.16;100.00;97440.53;5050720;27;105465;-63
2022/03/20 03:58:12;;;;;;;22.83;17.23;;;;;;;-0.19;100.00;97434.81;5050397;27;103974;-63
2022/03/20 04:00:43;;;;;;;26.17;18.70;;;;;;;-0.21;100.00;97439.38;5052390;27;101987;-63
2022/03/20 04:03:10;;;;;;;28.07;20.37;;;;;;;-0.21;100.00;97442.00;5050489;27;105499;-63
2022/03/20 04:05:37;;;;;;;24.57;19.30;;;;;;;-0.40;100.00;97455.31;5053864;27;105075;-63
2022/03/20 04:08:07;;;;;;;26.40;20.13;;;;;;;-0.32;100.00;97452.75;5050806;27;104887;-63
2022/03/20 04:10:34;;;;;;;27.33;19.37;;;;;;;-0.36;100.00;97454.81;5050283;27;105842;-63
2022/03/20 04:13:01;;;;;;;25.43;19.17;;;;;;;-0.34;100.00;97449.44;5050418;27;101927;-63
2022/03/20 04:15:30;;;;;;;28.90;20.40;;;;;;;-0.55;100.00;97454.25;5050757;27;103668;-63
2022/03/20 04:18:00;;;;;;;25.47;18.80;;;;;;;-0.45;100.00;97446.31;5050338;27;105943;-63
2022/03/20 04:20:27;;;;;;;24.13;18.97;;;;;;;-0.53;100.00;97454.94;5050608;27;101783;-63
2022/03/20 04:25:41;;;;;;;27.23;18.57;;;;;;;-0.58;100.00;97451.13;5053669;27;105726;-63
2022/03/20 04:28:08;;;;;;;26.07;18.87;;;;;;;-0.66;100.00;97454.50;5050475;27;105268;-63
2022/03/20 04:30:36;;;;;;;24.63;18.13;;;;;;;-0.90;100.00;97451.78;5049718;27;105033;-63
2022/03/20 04:33:05;;;;;;;25.73;17.60;;;;;;;-1.20;100.00;97448.78;5050431;27;101886;-63
2022/03/20 04:35:32;;;;;;;24.17;17.13;;;;;;;-1.02;100.00;97447.78;5051750;27;102281;-63
2022/03/20 04:38:01;;;;;;;29.00;17.73;;;;;;;-1.22;100.00;97443.72;5051451;27;103136;-63
2022/03/20 04:40:28;;;;;;;25.97;18.80;;;;;;;-1.19;100.00;97446.03;5050424;27;101863;-63
2022/03/20 04:42:55;;;;;;;24.57;19.17;;;;;;;-1.11;100.00;97447.88;5050039;27;103540;-63
2022/03/20 04:45:22;;;;;;;27.77;20.03;;;;;;;-0.97;100.00;97445.53;5051381;27;103160;-63
2022/03/20 04:58:56;;;;;;;24.70;18.73;;;;;;;-0.88;100.00;97457.66;5050891;27;105386;-63
2022/03/20 05:01:23;;;;;;;27.23;19.20;;;;;;;-0.97;100.00;97457.75;5049798;27;102101;-63
2022/03/20 05:03:50;;;;;;;26.30;19.27;;;;;;;-1.11;100.00;97466.97;5049914;27;105722;-63
2022/03/20 05:06:19;;;;;;;28.77;18.80;;;;;;;-1.07;100.00;97464.84;5049459;27;105809;-63
2022/03/20 05:08:46;;;;;;;25.53;18.67;;;;;;;-1.01;100.00;97472.91;5049837;27;101936;-63
2022/03/20 05:13:57;;;;;;;28.10;19.50;;;;;;;-0.93;100.00;97467.72;5049951;27;102042;-63
2022/03/20 05:16:25;;;;;;;27.77;19.23;;;;;;;-1.26;100.00;97486.72;5051229;27;102600;-63
2022/03/20 05:18:51;;;;;;;26.37;18.97;;;;;;;-1.00;100.00;97484.97;5048882;27;105149;-63
2022/03/20 05:21:20;;;;;;;27.23;19.37;;;;;;;-1.03;100.00;97487.91;5049618;27;101842;-63
2022/03/20 05:23:47;;;;;;;35.57;24.60;;;;;;;-0.84;100.00;97492.09;5049657;27;105092;-63
2022/03/20 05:26:15;;;;;;;60.43;37.50;;;;;;;-0.74;100.00;97482.38;5049008;27;104377;-63
2022/03/20 05:28:42;;;;;;;30.53;21.63;;;;;;;-0.93;100.00;97486.00;5051104;27;101860;-63
2022/03/20 05:31:09;;;;;;;32.40;21.63;;;;;;;-0.74;100.00;97488.44;5049173;27;103766;-63
2022/03/20 05:33:38;;;;;;;31.00;21.20;;;;;;;-0.62;100.00;97487.19;5052421;27;105347;-63
2022/03/20 05:36:05;;;;;;;28.13;19.33;;;;;;;-1.02;100.00;97492.16;5049394;27;105204;-63
2022/03/20 05:38:35;;;;;;;25.37;19.17;;;;;;;-0.96;100.00;97493.31;5048755;27;103681;-63
2022/03/20 05:43:46;;;;;;;26.97;18.83;;;;;;;-0.82;100.00;97490.97;5049046;27;105529;-63
2022/03/20 05:46:15;;;;;;;25.50;18.00;;;;;;;-0.62;100.00;97492.41;5048743;27;104162;-63
2022/03/20 05:48:42;;;;;;;25.00;19.33;;;;;;;-0.76;100.00;97495.59;5049224;27;102264;-63
2022/03/20 05:51:10;;;;;;;27.27;17.87;;;;;;;-0.50;100.00;97501.63;5049228;27;105064;-63
2022/03/20 05:53:38;;;;;;;25.07;18.33;;;;;;;-0.42;100.00;97509.53;5048315;27;104163;-63
2022/03/20 05:58:50;;;;;;;25.13;18.23;;;;;;;-0.22;100.00;97513.53;5048692;27;105656;-63
2022/03/20 06:01:20;;;;;;;22.97;17.40;;;;;;;-0.15;100.00;97517.97;5048682;27;102151;-63
2022/03/20 06:03:47;;;;;;;25.77;18.67;;;;;;;-0.11;100.00;97516.69;5048490;27;106865;-63
2022/03/20 06:06:14;;;;;;;25.50;17.97;;;;;;;0.08;100.00;97515.63;5048324;27;105344;-63
2022/03/20 06:08:43;;;;;;;26.13;18.47;;;;;;;0.17;100.00;97512.06;5048781;27;102028;-63
2022/03/20 06:11:10;;;;;;;25.00;18.03;;;;;;;0.36;100.00;97519.63;5050214;27;102925;-63
2022/03/20 06:13:37;;;;;;;25.63;18.00;;;;;;;0.45;100.00;97516.88;5048029;27;105633;-63
2022/03/20 06:16:05;;;;;;;25.73;19.27;;;;;;;0.31;100.00;97522.75;5050091;27;101649;-63
2022/03/20 06:18:33;;;;;;;24.47;18.57;;;;;;;0.49;100.00;97517.34;5051667;27;105226;-63
2022/03/20 06:21:00;;;;;;;23.40;17.00;;;;;;;0.41;100.00;97522.59;5050159;27;101842;-63
2022/03/20 06:23:29;;;;;;;24.30;17.70;;;;;;;0.60;100.00;97527.56;5048664;27;105095;-63
2022/03/20 06:25:58;;;;;;;25.03;18.83;;;;;;;0.78;100.00;97531.66;5048168;27;104978;-63
2022/03/20 06:28:26;;;;;;;24.73;18.10;;;;;;;0.90;100.00;97542.63;5048237;27;102022;-63
2022/03/20 06:30:54;;;;;;;26.23;18.93;;;;;;;1.05;100.00;97541.00;5049876;27;102261;-62
2022/03/20 06:33:21;;;;;;;24.50;18.43;;;;;;;1.17;100.00;97537.06;5047846;27;105052;-63
2022/03/20 06:35:48;;;;;;;30.03;19.77;;;;;;;1.06;100.00;97547.88;5048333;27;101925;-62
2022/03/20 06:38:15;;;;;;;28.57;19.73;;;;;;;1.27;100.00;97546.41;5052842;27;103049;-62
2022/03/20 06:40:42;;;;;;;27.23;20.20;;;;;;;1.33;100.00;97543.16;5048158;27;101889;-62
2022/03/20 06:43:11;;;;;;;27.80;20.63;;;;;;;1.56;100.00;97541.47;5048421;27;105611;-62
2022/03/20 06:45:38;;;;;;;29.47;21.17;;;;;;;1.68;100.00;97544.53;5047645;27;105429;-63
2022/03/20 06:48:06;;;;;;;26.43;19.57;;;;;;;1.80;100.00;97551.09;5048467;27;101932;-62
2022/03/20 06:50:33;;;;;;;24.40;18.83;;;;;;;1.99;100.00;97555.94;5048174;27;106105;-62
2022/03/20 06:53:03;;;;;;;28.60;20.80;;;;;;;2.14;100.00;97556.88;5047369;27;104102;-62
2022/03/20 06:55:31;;;;;;;32.00;22.13;;;;;;;2.20;100.00;97556.22;5047970;27;101974;-62
2022/03/20 06:57:58;;;;;;;36.33;24.40;;;;;;;2.24;100.00;97552.25;5047939;27;105643;-62
2022/03/20 07:00:33;;;;;;;32.97;23.50;;;;;;;2.35;100.00;97559.75;5050971;27;104327;-62
2022/03/20 07:03:03;;;;;;;38.37;26.47;;;;;;;2.28;100.00;97569.28;5049296;27;102308;-63
2022/03/20 07:05:31;;;;;;;33.77;24.33;;;;;;;2.55;100.00;97560.94;5047475;27;105603;-63
2022/03/20 07:07:58;;;;;;;35.80;25.47;;;;;;;2.80;100.00;97568.53;5047956;27;101860;-62
2022/03/20 07:10:26;;;;;;;40.13;25.57;;;;;;;2.95;100.00;97563.38;5049511;27;102912;-62
2022/03/20 07:13:48;;;;;;;36.70;23.70;;;;;;;2.97;100.00;97571.88;5047499;27;105840;-63
2022/03/20 07:15:47;;;;;;;33.20;24.13;;;;;;;3.14;100.00;97574.22;5046633;27;101909;-63
2022/03/20 07:18:16;;;;;;;32.03;23.30;;;;;;;3.31;100.00;97580.16;5047705;27;105177;-63
2022/03/20 07:20:46;;;;;;;29.67;21.67;;;;;;;3.26;100.00;97575.44;5048530;27;102975;-63
2022/03/20 07:23:13;;;;;;;29.23;21.73;;;;;;;3.20;100.00;97576.16;5052494;27;101734;-63
2022/03/20 07:31:12;;;;;;;27.20;20.13;;;;;;;3.94;100.00;97578.75;5049199;27;102705;-63
2022/03/20 07:33:41;;;;;;;25.47;19.63;;;;;;;4.29;100.00;97588.59;5047101;27;105552;-63
2022/03/20 07:36:10;;;;;;;24.50;18.90;;;;;;;4.31;100.00;97585.78;5047498;27;102010;-63
2022/03/20 07:38:37;;;;;;;25.73;18.90;;;;;;;4.43;100.00;97590.38;5047598;27;105222;-63
2022/03/20 07:41:05;;;;;;;24.17;18.30;;;;;;;4.71;100.00;97586.09;5048382;27;102994;-63
2022/03/20 07:43:32;;;;;;;26.60;18.87;;;;;;;4.82;100.00;97590.06;5047251;27;101868;-63
2022/03/20 07:46:00;;;;;;;24.10;17.83;;;;;;;4.95;100.00;97590.22;5051857;27;102652;-63
2022/03/20 07:48:28;;;;;;;23.93;17.33;;;;;;;5.05;100.00;97593.38;5047313;27;101958;-63
2022/03/20 07:50:56;;;;;;;22.20;16.77;;;;;;;5.04;100.00;97589.09;5048587;27;102378;-63
2022/03/20 07:53:23;;;;;;;19.77;16.00;;;;;;;5.26;100.00;97588.13;5046880;27;104315;-63
2022/03/20 07:55:51;;;;;;;24.20;17.20;;;;;;;5.63;100.00;97590.50;5046670;27;102066;-63
2022/03/20 07:58:19;;;;;;;21.90;16.70;;;;;;;5.68;100.00;97588.09;5048772;27;102620;-63
2022/03/20 08:00:47;;;;;;;20.57;16.37;;;;;;;5.73;100.00;97591.00;5046704;27;105189;-63
2022/03/20 08:03:16;;;;;;;21.43;16.60;;;;;;;5.98;100.00;97592.22;5046932;27;101913;-63
2022/03/20 08:05:45;;;;;;;22.57;15.77;;;;;;;6.10;100.00;97593.31;5046911;27;105237;-63
2022/03/20 08:08:16;;;;;;;22.57;16.70;;;;;;;6.40;100.00;97600.00;5050149;27;105286;-63
2022/03/20 08:10:43;;;;;;;22.80;16.00;;;;;;;6.58;100.00;97602.94;5047268;27;105288;-63
2022/03/20 08:13:12;;;;;;;20.93;16.00;;;;;;;6.63;100.00;97597.91;5046733;27;105396;-63
2022/03/20 08:15:40;;;;;;;18.80;15.27;;;;;;;6.78;100.00;97585.34;5048554;27;101787;-63
2022/03/20 08:18:07;;;;;;;19.37;15.73;;;;;;;7.13;100.00;97593.00;5046844;27;105481;-63
2022/03/20 08:20:35;;;;;;;18.67;14.93;;;;;;;6.95;97.86;97592.75;5046251;27;106701;-63
2022/03/20 08:23:05;;;;;;;19.77;14.83;;;;;;;7.17;100.00;97593.41;5048707;27;102147;-63
2022/03/20 08:25:32;;;;;;;18.80;15.03;;;;;;;7.28;100.00;97591.03;5047137;27;105729;-63
2022/03/20 08:27:59;;;;;;;18.67;15.13;;;;;;;7.50;95.95;97584.53;5049388;27;105261;-63
2022/03/20 08:30:28;;;;;;;18.33;14.50;;;;;;;7.74;93.12;97583.13;5053865;27;101728;-63
2022/03/20 08:32:56;;;;;;;18.23;14.53;;;;;;;7.97;93.05;97586.97;5049697;27;105223;-63
2022/03/20 08:35:23;;;;;;;17.77;14.47;;;;;;;8.02;92.19;97591.69;5050006;27;103446;-63
2022/03/20 08:37:52;;;;;;;17.83;14.30;;;;;;;7.92;86.93;97594.72;5050352;27;104821;-63
2022/03/20 08:40:23;;;;;;;17.83;14.80;;;;;;;7.87;84.95;97591.06;5049412;27;105183;-63
2022/03/20 08:42:53;;;;;;;17.57;13.80;;;;;;;7.96;87.60;97593.31;5050251;27;101698;-63
2022/03/20 08:45:21;;;;;;;16.90;14.10;;;;;;;8.40;89.14;97582.06;5048250;27;105272;-65
2022/03/20 08:47:49;;;;;;;19.60;14.60;;;;;;;8.51;91.28;97586.75;5037961;27;105822;-61
2022/03/20 08:50:19;;;;;;;17.53;14.53;;;;;;;8.68;82.52;97586.06;5035012;28;101809;-60
2022/03/20 08:52:47;;;;;;;16.10;14.13;;;;;;;8.74;82.89;97579.94;5031263;28;102802;-60
2022/03/20 08:55:14;;;;;;;16.93;14.60;;;;;;;8.93;82.00;97565.75;5029611;28;101877;-60
2022/03/20 08:57:46;;;;;;;18.60;15.10;;;;;;;9.11;79.69;97557.91;5030070;28;104790;-60
2022/03/20 09:00:38;;;;;;;17.07;14.60;;;;;;;9.11;81.77;97559.78;5029527;28;105761;-60
2022/03/20 09:03:04;;;;;;;16.93;14.93;;;;;;;9.11;84.46;97560.56;5029708;28;102304;-60
2022/03/20 09:05:31;;;;;;;17.77;15.17;;;;;;;9.53;85.50;97561.72;5029851;28;105441;-54
2022/03/20 09:07:58;;;;;;;20.77;15.87;;;;;;;9.65;75.79;97573.31;5046146;27;106351;-59
2022/03/20 09:10:27;;;;;;;20.17;16.37;;;;;;;9.73;79.27;97581.00;5029869;28;101834;-60
2022/03/20 09:13:00;;;;;;;19.67;16.13;;;;;;;9.75;81.70;97584.28;5034467;28;102436;-61
2022/03/20 09:15:28;;;;;;;19.33;15.77;;;;;;;9.87;78.85;97587.84;5029538;28;101756;-64
2022/03/20 09:20:44;;;;;;;19.07;15.70;;;;;;;9.39;76.51;97582.25;5029263;28;103945;-59
2022/03/20 09:23:13;;;;;;;17.53;15.13;;;;;;;9.53;75.14;97577.66;5029810;28;101990;-58
2022/03/20 09:25:40;;;;;;;16.70;14.43;;;;;;;8.97;81.02;97577.59;5029676;28;105553;-63
2022/03/20 09:28:12;;;;;;;19.00;15.10;;;;;;;9.10;82.63;97577.50;5029030;28;105639;-63
2022/03/20 09:30:41;;;;;;;18.37;14.93;;;;;;;9.56;78.62;97572.75;5046373;27;101765;-61
2022/03/20 09:33:10;;;;;;;17.40;14.93;;;;;;;9.64;75.77;97577.78;5029245;28;106246;-62
2022/03/20 09:35:38;;;;;;;19.17;15.20;;;;;;;9.82;77.09;97569.88;5032340;28;105792;-61
2022/03/20 09:38:08;;;;;;;18.73;14.87;;;;;;;10.18;76.69;97571.84;5028812;27;105010;-62
2022/03/20 09:40:39;;;;;;;16.57;14.27;;;;;;;10.53;69.01;97564.97;5028967;28;105745;-62
2022/03/20 09:43:07;;;;;;;17.00;14.60;;;;;;;10.37;69.22;97569.00;5029308;28;101907;-62
2022/03/20 09:45:35;;;;;;;16.73;14.27;;;;;;;10.47;65.23;97563.19;5029182;28;104799;-65
2022/03/20 09:48:02;;;;;;;17.10;14.57;;;;;;;10.32;71.00;97558.22;5028613;28;105259;-63
2022/03/20 09:50:30;;;;;;;17.47;14.80;;;;;;;10.76;68.63;97562.44;5029208;28;101897;-64
2022/03/20 09:52:57;;;;;;;17.37;14.20;;;;;;;11.03;66.46;97566.41;5030665;28;102334;-67
2022/03/20 09:55:24;;;;;;;15.90;13.77;;;;;;;11.08;59.58;97563.88;5028125;28;104995;-64
2022/03/20 09:57:55;;;;;;;17.07;12.77;;;;;;;11.24;58.64;97571.25;5032417;28;101954;-59
2022/03/20 10:00:24;;;;;;;16.60;13.47;;;;;;;10.99;58.15;97573.19;5030028;28;102978;-60
2022/03/20 10:02:53;;;;;;;16.23;14.03;;;;;;;11.24;57.76;97572.03;5029275;28;101691;-60
2022/03/20 10:05:21;;;;;;;15.17;13.57;;;;;;;11.15;59.47;97564.59;5045799;27;103679;-59
2022/03/20 10:07:49;;;;;;;15.93;13.50;;;;;;;11.44;59.08;97555.81;5028510;28;105743;-60
2022/03/20 10:10:42;;;;;;;14.43;12.47;;;;;;;11.42;51.11;97564.03;5028823;28;101922;-60
2022/03/20 10:13:18;;;;;;;14.97;11.73;;;;;;;12.10;50.41;97561.75;5028689;28;105391;-59
2022/03/20 10:15:46;;;;;;;14.57;12.23;;;;;;;12.37;47.15;97569.03;5028181;28;105226;-60
2022/03/20 10:18:17;;;;;;;12.50;11.20;;;;;;;12.82;46.44;97570.00;5045739;27;101871;-62
2022/03/20 10:20:46;;;;;;;12.17;10.87;;;;;;;13.36;45.75;97566.06;5031805;28;103609;-62
2022/03/20 10:23:29;;;;;;;13.43;10.90;;;;;;;13.46;45.75;97568.94;5028838;28;101840;-61
2022/03/20 10:25:57;;;;;;;12.70;11.37;;;;;;;13.38;43.75;97566.63;5028792;28;104222;-60
2022/03/20 10:28:24;;;;;;;13.47;11.00;;;;;;;13.68;44.28;97561.84;5029526;28;103182;-60
2022/03/20 10:30:59;;;;;;;13.77;11.33;;;;;;;13.40;41.73;97564.53;5028521;28;101995;-60
2022/03/20 10:33:28;;;;;;;12.13;10.83;;;;;;;13.10;43.54;97564.78;5044802;27;105636;-60
2022/03/20 10:36:09;;;;;;;10.63;9.53;;;;;;;14.00;41.69;97554.91;5027907;28;105312;-62
2022/03/20 10:38:37;;;;;;;11.47;10.17;;;;;;;14.63;40.43;97561.50;5046450;27;101869;-61
2022/03/20 10:41:32;;;;;;;10.53;9.43;;;;;;;15.04;39.39;97552.09;5028351;28;104899;-60
2022/03/20 10:44:20;;;;;;;11.43;9.10;;;;;;;15.41;38.65;97553.06;5030662;27;101893;-63
2022/03/20 10:46:56;;;;;;;12.03;9.30;;;;;;;15.53;36.66;97551.88;5029422;28;104780;-61
2022/03/20 10:49:26;;;;;;;10.30;9.30;;;;;;;15.59;36.69;97555.41;5045015;27;105504;-62
2022/03/20 10:52:09;;;;;;;9.97;8.97;;;;;;;15.75;35.00;97546.47;5029046;28;101738;-61
2022/03/20 10:54:42;;;;;;;9.83;8.63;;;;;;;15.67;34.98;97553.09;5045659;27;105711;-62
2022/03/20 10:57:10;;;;;;;9.23;8.33;;;;;;;15.48;34.03;97554.50;5045327;27;105916;-60
2022/03/20 10:59:37;;;;;;;9.93;8.63;;;;;;;15.66;33.30;97550.66;5029168;28;101935;-60
2022/03/20 11:02:06;;;;;;;9.60;8.67;;;;;;;15.68;34.61;97552.03;5030028;27;105286;-60
2022/03/20 11:04:35;;;;;;;10.13;9.10;;;;;;;15.79;36.41;97548.38;5033083;27;104727;-60
2022/03/20 11:07:07;;;;;;;9.97;8.87;;;;;;;15.86;36.36;97556.22;5030282;28;102667;-65
2022/03/20 11:09:34;;;;;;;10.77;9.20;;;;;;;16.21;34.39;97553.81;5040070;27;105747;-70
2022/03/20 11:12:06;;;;;;;10.17;9.07;;;;;;;16.63;36.07;97539.34;5048908;27;102087;-68
2022/03/20 11:14:44;;;;;;;9.50;8.50;;;;;;;16.85;34.88;97549.94;5048679;27;105388;-68
2022/03/20 11:17:17;;;;;;;8.80;7.90;;;;;;;17.02;33.32;97551.38;5048430;27;105516;-60
2022/03/20 11:19:54;;;;;;;9.90;8.93;;;;;;;16.28;32.97;97549.84;5049130;27;101778;-60
2022/03/20 11:22:23;;;;;;;9.30;8.40;;;;;;;16.57;33.61;97540.38;5049163;27;105456;-60
2022/03/20 11:24:55;;;;;;;12.57;10.33;;;;;;;17.07;33.75;97547.88;5048709;27;105396;-60
2022/03/20 11:27:24;;;;;;;11.43;9.77;;;;;;;16.71;33.33;97546.09;5051464;27;101799;-60
2022/03/20 11:30:01;;;;;;;10.00;9.00;;;;;;;16.95;32.38;97540.03;5048370;27;105490;-60
2022/03/20 11:32:29;;;;;;;10.53;9.43;;;;;;;16.78;32.73;97536.72;5048851;27;102050;-60
2022/03/20 11:34:58;;;;;;;13.30;11.73;;;;;;;16.90;33.29;97536.53;5048549;27;105518;-60
2022/03/20 11:37:43;;;;;;;10.33;8.93;;;;;;;16.89;31.98;97537.59;5047479;27;104337;-60
2022/03/20 11:40:15;;;;;;;10.27;9.27;;;;;;;16.45;30.95;97531.72;5048876;27;101920;-60
2022/03/20 11:42:43;;;;;;;11.00;9.83;;;;;;;17.01;32.52;97533.59;5048900;27;105151;-60
2022/03/20 11:45:16;;;;;;;10.47;9.47;;;;;;;16.83;32.04;97528.69;5048243;27;105132;-60
2022/03/20 11:47:44;;;;;;;11.70;10.50;;;;;;;17.08;31.99;97534.19;5048556;27;101802;-60
2022/03/20 11:50:19;;;;;;;9.07;8.17;;;;;;;17.00;31.81;97534.69;5050607;27;103713;-60
2022/03/20 11:52:55;;;;;;;10.07;8.57;;;;;;;17.53;31.64;97526.25;5050251;27;101686;-60